createdAt,value
2023-05-18T00:01:12.534Z,15.42
2023-05-18T00:03:15.585Z,15.41
2023-05-18T00:05:18.200Z,15.42
2023-05-18T00:07:20.038Z,15.37
2023-05-18T00:09:21.846Z,15.43
2023-05-18T00:11:23.516Z,15.47
2023-05-18T00:13:25.325Z,15.44
2023-05-18T00:15:27.795Z,15.44
2023-05-18T00:17:30.985Z,15.37
2023-05-18T00:19:33.932Z,15.34
2023-05-18T00:21:36.999Z,15.35
2023-05-18T00:23:40.385Z,15.35
2023-05-18T00:25:42.285Z,15.33
2023-05-18T00:27:44.917Z,15.30
2023-05-18T00:29:47.292Z,15.27
2023-05-18T00:31:49.074Z,15.27
2023-05-18T00:33:52.313Z,15.27
2023-05-18T00:35:57.490Z,15.19
2023-05-18T00:37:59.232Z,15.18
2023-05-18T00:40:00.889Z,15.09
2023-05-18T00:42:04.834Z,15.01
2023-05-18T00:44:06.763Z,14.88
2023-05-18T00:46:08.977Z,14.91
2023-05-18T00:48:10.796Z,14.88
2023-05-18T00:50:14.532Z,14.85
2023-05-18T00:52:16.498Z,14.89
2023-05-18T00:54:18.934Z,14.90
2023-05-18T00:56:22.681Z,14.91
2023-05-18T00:58:25.338Z,14.85
2023-05-18T01:00:28.124Z,14.87
2023-05-18T01:02:30.153Z,14.73
2023-05-18T01:04:31.974Z,14.71
2023-05-18T01:06:35.131Z,14.68
2023-05-18T01:08:37.718Z,14.64
2023-05-18T01:10:43.463Z,14.59
2023-05-18T01:12:50.880Z,14.61
2023-05-18T01:14:59.660Z,14.65
2023-05-18T01:17:10.945Z,14.75
2023-05-18T01:19:34.116Z,14.74
2023-05-18T01:21:56.778Z,14.68
2023-05-18T01:24:12.271Z,14.73
2023-05-18T01:26:17.038Z,14.81
2023-05-18T01:28:20.832Z,14.83
2023-05-18T01:30:23.577Z,14.92
2023-05-18T01:32:25.584Z,14.81
2023-05-18T01:34:27.446Z,14.88
2023-05-18T01:36:29.193Z,14.86
2023-05-18T01:38:30.996Z,14.82
2023-05-18T01:40:37.338Z,14.68
2023-05-18T01:42:51.637Z,14.74
2023-05-18T01:44:59.135Z,14.82
2023-05-18T01:47:04.478Z,14.77
2023-05-18T01:49:16.921Z,14.81
2023-05-18T01:51:20.933Z,14.86
2023-05-18T01:53:27.917Z,14.79
2023-05-18T01:55:31.189Z,14.83
2023-05-18T01:57:35.080Z,14.78
2023-05-18T01:59:38.992Z,14.78
2023-05-18T02:01:40.889Z,14.69
2023-05-18T02:03:43.872Z,14.73
2023-05-18T02:05:45.715Z,14.73
2023-05-18T02:07:50.843Z,14.70
2023-05-18T02:09:52.480Z,14.66
2023-05-18T02:11:54.341Z,14.64
2023-05-18T02:13:56.045Z,14.75
2023-05-18T02:15:59.401Z,14.79
2023-05-18T02:18:01.237Z,14.76
2023-05-18T02:20:02.911Z,14.76
2023-05-18T02:22:05.090Z,14.73
2023-05-18T02:24:07.750Z,14.75
2023-05-18T02:26:09.476Z,14.82
2023-05-18T02:28:11.475Z,14.74
2023-05-18T02:30:15.796Z,14.75
2023-05-18T02:32:19.269Z,14.63
2023-05-18T02:34:21.151Z,14.53
2023-05-18T02:36:22.746Z,14.40
2023-05-18T02:38:25.589Z,14.25
2023-05-18T02:40:27.208Z,14.18
2023-05-18T02:42:31.324Z,14.07
2023-05-18T02:44:33.364Z,13.97
2023-05-18T02:46:35.071Z,13.91
2023-05-18T02:48:38.253Z,13.87
2023-05-18T02:50:40.064Z,13.82
2023-05-18T02:52:42.026Z,13.76
2023-05-18T02:54:43.798Z,13.72
2023-05-18T02:56:45.546Z,13.75
2023-05-18T02:58:47.218Z,13.66
2023-05-18T03:00:49.578Z,13.57
2023-05-18T03:02:53.469Z,13.53
2023-05-18T03:04:56.563Z,13.48
2023-05-18T03:06:58.476Z,13.42
2023-05-18T03:09:00.171Z,13.34
2023-05-18T03:11:02.021Z,13.34
2023-05-18T03:13:03.945Z,13.33
2023-05-18T03:15:06.725Z,13.33
2023-05-18T03:17:08.440Z,13.33
2023-05-18T03:19:15.292Z,13.26
2023-05-18T03:21:18.267Z,13.16
2023-05-18T03:23:21.020Z,13.16
2023-05-18T03:25:22.756Z,13.12
2023-05-18T03:27:24.461Z,13.05
2023-05-18T03:29:26.170Z,13.01
2023-05-18T03:31:28.212Z,13.05
2023-05-18T03:33:29.854Z,13.05
2023-05-18T03:35:31.731Z,13.08
2023-05-18T03:37:34.920Z,13.12
2023-05-18T03:39:36.607Z,13.27
2023-05-18T03:41:38.295Z,13.32
2023-05-18T03:43:42.280Z,13.35
2023-05-18T03:45:44.233Z,13.40
2023-05-18T03:47:50.931Z,13.45
2023-05-18T03:49:52.917Z,13.50
2023-05-18T03:51:54.719Z,13.57
2023-05-18T03:53:58.484Z,13.57
2023-05-18T03:56:02.490Z,13.58
2023-05-18T03:58:05.570Z,13.64
2023-05-18T04:00:08.229Z,13.68
2023-05-18T04:02:10.027Z,13.72
2023-05-18T04:04:11.657Z,13.72
2023-05-18T04:06:13.714Z,13.69
2023-05-18T04:08:15.810Z,13.71
2023-05-18T04:10:19.404Z,13.73
2023-05-18T04:12:23.338Z,13.74
2023-05-18T04:14:25.263Z,13.68
2023-05-18T04:16:27.761Z,13.74
2023-05-18T04:18:29.693Z,13.69
2023-05-18T04:20:31.567Z,13.75
2023-05-18T04:22:35.780Z,13.79
2023-05-18T04:24:37.423Z,13.79
2023-05-18T04:26:41.068Z,13.84
2023-05-18T04:28:42.727Z,13.79
2023-05-18T04:30:44.612Z,13.73
2023-05-18T04:32:46.585Z,13.73
2023-05-18T04:34:48.467Z,13.75
2023-05-18T04:36:50.181Z,13.81
2023-05-18T04:38:52.322Z,13.80
2023-05-18T04:40:53.995Z,13.70
2023-05-18T04:42:57.367Z,13.73
2023-05-18T04:44:59.367Z,13.72
2023-05-18T04:47:01.257Z,13.66
2023-05-18T04:49:02.997Z,13.70
2023-05-18T04:51:04.673Z,13.62
2023-05-18T04:53:06.529Z,13.56
2023-05-18T04:55:09.116Z,13.48
2023-05-18T04:57:11.454Z,13.42
2023-05-18T04:59:14.567Z,13.35
2023-05-18T05:01:16.326Z,13.36
2023-05-18T05:03:18.205Z,13.33
2023-05-18T05:05:20.788Z,13.43
2023-05-18T05:07:22.574Z,13.56
2023-05-18T05:09:24.728Z,13.62
2023-05-18T05:11:27.963Z,13.64
2023-05-18T05:13:29.900Z,13.67
2023-05-18T05:15:33.104Z,13.76
2023-05-18T05:17:35.038Z,13.77
2023-05-18T05:19:37.170Z,13.84
2023-05-18T05:21:38.752Z,13.89
2023-05-18T05:23:40.376Z,14.04
2023-05-18T05:25:42.072Z,14.03
2023-05-18T05:27:43.911Z,14.00
2023-05-18T05:29:46.980Z,14.01
2023-05-18T05:31:50.053Z,14.01
2023-05-18T05:33:51.746Z,13.77
2023-05-18T05:35:53.541Z,13.88
2023-05-18T05:37:55.474Z,13.79
2023-05-18T05:39:57.080Z,13.78
2023-05-18T05:41:58.684Z,13.82
2023-05-18T05:44:00.437Z,13.89
2023-05-18T05:46:02.812Z,13.97
2023-05-18T05:48:06.384Z,13.90
2023-05-18T05:50:08.320Z,13.87
2023-05-18T05:52:09.958Z,13.88
2023-05-18T05:54:11.546Z,13.96
2023-05-18T05:56:13.185Z,13.98
2023-05-18T05:58:14.861Z,14.05
2023-05-18T06:00:17.225Z,14.08
2023-05-18T06:02:19.042Z,14.12
2023-05-18T06:04:22.134Z,14.14
2023-05-18T06:06:23.984Z,14.12
2023-05-18T06:08:25.942Z,14.17
2023-05-18T06:10:27.876Z,14.16
2023-05-18T06:12:29.569Z,14.28
2023-05-18T06:14:31.262Z,14.40
2023-05-18T06:16:32.975Z,14.37
2023-05-18T06:18:34.869Z,14.39
2023-05-18T06:20:38.795Z,14.49
2023-05-18T06:22:40.540Z,14.45
2023-05-18T06:24:42.212Z,14.48
2023-05-18T06:26:43.793Z,14.46
2023-05-18T06:28:45.359Z,14.50
2023-05-18T06:30:46.947Z,14.54
2023-05-18T06:32:48.804Z,14.59
2023-05-18T06:34:50.495Z,14.69
2023-05-18T06:36:53.854Z,14.72
2023-05-18T06:38:55.465Z,14.88
2023-05-18T06:40:57.076Z,15.02
2023-05-18T06:42:58.663Z,15.20
2023-05-18T06:45:00.335Z,15.23
2023-05-18T06:47:01.979Z,15.33
2023-05-18T06:49:04.153Z,15.42
2023-05-18T06:51:05.816Z,15.42
2023-05-18T06:53:08.778Z,15.54
2023-05-18T06:55:10.612Z,15.61
2023-05-18T06:57:12.364Z,15.69
2023-05-18T06:59:13.980Z,15.70
2023-05-18T07:01:15.956Z,15.81
2023-05-18T07:03:17.666Z,15.95
2023-05-18T07:05:19.559Z,15.85
2023-05-18T07:07:21.352Z,15.89
2023-05-18T07:09:25.403Z,15.87
2023-05-18T07:11:29.492Z,15.91
2023-05-18T07:13:31.344Z,15.94
2023-05-18T07:15:41.769Z,16.07
2023-05-18T07:17:43.500Z,16.04
2023-05-18T07:19:45.121Z,16.23
2023-05-18T07:21:46.761Z,16.39
2023-05-18T07:23:48.478Z,16.34
2023-05-18T07:25:51.535Z,16.39
2023-05-18T07:27:54.143Z,16.41
2023-05-18T07:29:55.884Z,16.48
2023-05-18T07:31:57.727Z,16.67
2023-05-18T07:33:59.625Z,16.74
2023-05-18T07:36:01.185Z,16.83
2023-05-18T07:38:02.804Z,17.00
2023-05-18T07:40:05.140Z,17.04
2023-05-18T07:42:08.812Z,17.14
2023-05-18T07:44:10.643Z,16.97
2023-05-18T07:46:12.320Z,16.69
2023-05-18T07:48:14.028Z,16.94
2023-05-18T07:50:15.734Z,17.07
2023-05-18T07:52:17.553Z,17.21
2023-05-18T07:54:19.138Z,17.29
2023-05-18T07:56:20.924Z,17.42
2023-05-18T07:58:23.897Z,17.45
2023-05-18T08:00:25.513Z,17.38
2023-05-18T08:02:27.222Z,17.32
2023-05-18T08:04:29.088Z,17.47
2023-05-18T08:06:30.706Z,17.67
2023-05-18T08:08:32.314Z,17.68
2023-05-18T08:10:33.983Z,17.77
2023-05-18T08:12:35.700Z,17.66
2023-05-18T08:14:38.626Z,17.51
2023-05-18T08:16:40.239Z,17.59
2023-05-18T08:18:42.197Z,17.51
2023-05-18T08:20:43.919Z,17.91
2023-05-18T08:22:45.548Z,18.08
2023-05-18T08:24:47.198Z,18.02
2023-05-18T08:26:48.782Z,17.92
2023-05-18T08:28:50.379Z,17.99
2023-05-18T08:30:53.642Z,18.22
2023-05-18T08:32:55.335Z,18.06
2023-05-18T08:34:57.189Z,18.15
2023-05-18T08:36:58.769Z,18.32
2023-05-18T08:39:00.527Z,18.44
2023-05-18T08:41:15.043Z,18.42
2023-05-18T08:43:21.457Z,18.48
2023-05-18T08:45:32.798Z,18.46
2023-05-18T08:47:37.803Z,18.45
2023-05-18T08:49:41.731Z,18.47
2023-05-18T08:51:46.544Z,18.57
2023-05-18T08:53:52.477Z,18.59
2023-05-18T08:55:54.452Z,18.52
2023-05-18T08:57:59.097Z,18.49
2023-05-18T09:00:01.827Z,18.51
2023-05-18T09:02:04.958Z,18.55
2023-05-18T09:04:09.548Z,18.55
2023-05-18T09:06:11.495Z,18.50
2023-05-18T09:08:13.574Z,18.42
2023-05-18T09:10:15.368Z,18.52
2023-05-18T09:12:18.904Z,18.57
2023-05-18T09:14:20.852Z,18.61
2023-05-18T09:16:22.559Z,18.64
2023-05-18T09:18:26.161Z,18.65
2023-05-18T09:20:31.027Z,18.66
2023-05-18T09:22:33.327Z,18.69
2023-05-18T09:24:35.008Z,18.76
2023-05-18T09:26:36.879Z,18.77
2023-05-18T09:28:40.324Z,18.71
2023-05-18T09:30:42.690Z,18.68
2023-05-18T09:32:46.782Z,18.77
2023-05-18T09:34:48.926Z,18.81
2023-05-18T09:36:52.059Z,18.90
2023-05-18T09:38:53.725Z,18.95
2023-05-18T09:40:55.496Z,19.02
2023-05-18T09:42:57.086Z,19.07
2023-05-18T09:44:58.790Z,19.09
2023-05-18T09:47:00.974Z,19.16
2023-05-18T09:49:04.092Z,19.18
2023-05-18T09:51:06.330Z,19.15
2023-05-18T09:53:10.232Z,19.18
2023-05-18T09:55:12.764Z,19.20
2023-05-18T09:57:14.460Z,19.27
2023-05-18T09:59:16.396Z,19.31
2023-05-18T10:01:18.136Z,19.40
2023-05-18T10:03:21.512Z,19.42
2023-05-18T10:05:24.642Z,19.49
2023-05-18T10:07:26.324Z,19.63
2023-05-18T10:09:29.350Z,19.72
2023-05-18T10:11:35.146Z,19.74
2023-05-18T10:13:36.885Z,19.79
2023-05-18T10:15:46.031Z,19.87
2023-05-18T10:17:48.970Z,19.86
2023-05-18T10:19:54.590Z,19.89
2023-05-18T10:21:56.281Z,19.94
2023-05-18T10:23:59.537Z,19.93
2023-05-18T10:26:05.106Z,19.96
2023-05-18T10:28:10.069Z,19.93
2023-05-18T10:30:14.228Z,19.98
2023-05-18T10:32:17.224Z,20.07
2023-05-18T10:34:19.067Z,20.10
2023-05-18T10:36:23.500Z,20.08
2023-05-18T10:38:28.714Z,20.15
2023-05-18T10:40:30.650Z,20.23
2023-05-18T10:42:34.936Z,20.24
2023-05-18T10:44:39.407Z,20.33
2023-05-18T10:46:41.815Z,20.38
2023-05-18T10:48:48.040Z,20.49
2023-05-18T10:50:50.725Z,20.62
2023-05-18T10:52:53.327Z,20.55
2023-05-18T10:54:55.277Z,20.50
2023-05-18T10:56:57.076Z,20.54
2023-05-18T10:59:00.233Z,20.57
2023-05-18T11:01:05.325Z,20.62
2023-05-18T11:03:10.572Z,20.71
2023-05-18T11:05:12.753Z,20.78
2023-05-18T11:07:15.884Z,20.84
2023-05-18T11:09:23.512Z,21.00
2023-05-18T11:11:25.332Z,20.83
2023-05-18T11:13:29.475Z,20.89
2023-05-18T11:16:08.774Z,20.99
2023-05-18T11:18:13.787Z,21.00
2023-05-18T11:20:17.448Z,20.96
2023-05-18T11:22:19.075Z,20.96
2023-05-18T11:24:40.792Z,20.93
2023-05-18T11:26:43.654Z,20.93
2023-05-18T11:28:45.358Z,21.00
2023-05-18T11:30:49.900Z,21.00
2023-05-18T11:32:53.185Z,21.10
2023-05-18T11:34:55.566Z,21.21
2023-05-18T11:36:57.154Z,21.28
2023-05-18T11:39:03.952Z,21.31
2023-05-18T11:41:06.580Z,21.29
2023-05-18T11:43:08.195Z,21.39
2023-05-18T11:45:11.513Z,21.43
2023-05-18T11:47:13.232Z,21.56
2023-05-18T11:49:19.900Z,21.72
2023-05-18T11:51:21.609Z,21.87
2023-05-18T11:53:24.096Z,21.84
2023-05-18T11:55:37.522Z,21.92
2023-05-18T11:57:39.867Z,22.08
2023-05-18T11:59:43.572Z,21.94
2023-05-18T12:01:45.423Z,21.94
2023-05-18T12:03:48.575Z,22.12
2023-05-18T12:05:51.835Z,22.00
2023-05-18T12:07:53.887Z,21.85
2023-05-18T12:09:58.193Z,22.00
2023-05-18T12:12:01.162Z,22.08
2023-05-18T12:14:03.401Z,22.15
2023-05-18T12:16:06.424Z,22.22
2023-05-18T12:18:08.121Z,22.46
2023-05-18T12:20:11.252Z,22.60
2023-05-18T12:22:14.662Z,23.05
2023-05-18T12:24:16.282Z,23.45
2023-05-18T12:26:17.855Z,23.98
2023-05-18T12:28:19.531Z,24.39
2023-05-18T12:30:22.784Z,25.00
2023-05-18T12:32:24.736Z,24.40
2023-05-18T12:34:28.783Z,24.30
2023-05-18T12:36:30.376Z,24.61
2023-05-18T12:38:33.694Z,25.58
2023-05-18T12:40:36.506Z,25.81
2023-05-18T12:42:38.110Z,25.78
2023-05-18T12:44:41.179Z,25.99
2023-05-18T12:46:43.129Z,26.10
2023-05-18T12:48:47.652Z,26.56
2023-05-18T12:50:50.774Z,26.72
2023-05-18T12:52:52.719Z,26.77
2023-05-18T12:54:56.874Z,27.62
2023-05-18T12:59:00.879Z,27.27
2023-05-18T13:01:07.689Z,27.35
2023-05-18T13:03:13.827Z,27.36
2023-05-18T13:05:24.129Z,27.52
2023-05-18T13:07:26.227Z,27.81
2023-05-18T13:09:27.862Z,27.69
2023-05-18T13:11:30.844Z,28.22
2023-05-18T13:13:32.948Z,28.66
2023-05-18T13:15:36.492Z,28.53
2023-05-18T13:17:38.481Z,28.87
2023-05-18T13:19:40.130Z,28.70
2023-05-18T13:21:42.260Z,28.89
2023-05-18T13:23:44.037Z,29.01
2023-05-18T13:25:45.803Z,28.78
2023-05-18T13:27:48.786Z,28.90
2023-05-18T13:29:50.399Z,29.05
2023-05-18T13:31:52.073Z,29.07
2023-05-18T13:33:53.769Z,28.56
2023-05-18T13:35:55.355Z,28.70
2023-05-18T13:37:57.230Z,28.89
2023-05-18T13:39:58.857Z,29.22
2023-05-18T13:42:00.467Z,29.36
2023-05-18T13:44:03.865Z,29.35
2023-05-18T13:46:05.609Z,28.79
2023-05-18T13:48:09.425Z,28.68
2023-05-18T13:50:11.748Z,29.00
2023-05-18T13:52:13.434Z,28.87
2023-05-18T13:54:15.035Z,29.02
2023-05-18T13:56:16.706Z,28.90
2023-05-18T13:58:18.345Z,28.98
2023-05-18T14:00:21.555Z,28.80
2023-05-18T14:02:23.208Z,28.99
2023-05-18T14:04:24.853Z,28.89
2023-05-18T14:06:26.456Z,28.69
2023-05-18T14:08:29.628Z,27.97
2023-05-18T14:10:31.581Z,27.82
2023-05-18T14:12:33.781Z,27.78
2023-05-18T14:14:35.479Z,27.37
2023-05-18T14:16:38.487Z,27.21
2023-05-18T14:18:40.249Z,27.07
2023-05-18T14:20:41.943Z,27.13
2023-05-18T14:22:43.541Z,26.62
2023-05-18T14:24:45.118Z,26.11
2023-05-18T14:26:46.721Z,25.95
2023-05-18T14:28:48.721Z,25.69
2023-05-18T14:30:50.374Z,25.34
2023-05-18T14:32:53.435Z,25.19
2023-05-18T14:34:55.170Z,25.32
2023-05-18T14:36:56.890Z,25.19
2023-05-18T14:38:58.524Z,24.99
2023-05-18T14:41:00.170Z,24.95
2023-05-18T14:43:01.738Z,24.87
2023-05-18T14:45:04.128Z,24.67
2023-05-18T14:47:06.036Z,24.68
2023-05-18T14:49:09.109Z,24.49
2023-05-18T14:51:10.768Z,24.31
2023-05-18T14:53:12.497Z,24.30
2023-05-18T14:55:14.136Z,24.14
2023-05-18T14:57:15.899Z,24.21
2023-05-18T14:59:17.488Z,24.32
2023-05-18T15:01:19.980Z,24.39
2023-05-18T15:03:22.834Z,24.48
2023-05-18T15:05:26.538Z,24.34
2023-05-18T15:07:28.229Z,24.30
2023-05-18T15:09:29.860Z,24.41
2023-05-18T15:11:31.511Z,24.08
2023-05-18T15:13:33.129Z,23.99
2023-05-18T15:15:34.749Z,23.99
2023-05-18T15:17:36.384Z,23.93
2023-05-18T15:19:37.992Z,23.90
2023-05-18T15:21:41.006Z,23.97
2023-05-18T15:23:42.675Z,23.74
2023-05-18T15:25:44.837Z,23.77
2023-05-18T15:27:46.397Z,23.85
2023-05-18T15:29:48.252Z,23.76
2023-05-18T15:31:50.034Z,23.65
2023-05-18T15:33:51.904Z,23.62
2023-05-18T15:35:53.468Z,23.68
2023-05-18T15:37:56.655Z,23.80
2023-05-18T15:39:58.468Z,23.96
2023-05-18T15:42:00.140Z,23.86
2023-05-18T15:44:02.033Z,23.77
2023-05-18T15:46:04.449Z,23.67
2023-05-18T15:48:06.777Z,23.71
2023-05-18T15:50:08.989Z,23.57
2023-05-18T15:52:11.023Z,23.52
2023-05-18T15:54:14.024Z,23.33
2023-05-18T15:56:15.651Z,23.37
2023-05-18T15:58:17.323Z,23.41
2023-05-18T16:00:19.515Z,23.42
2023-05-18T16:02:22.585Z,23.51
2023-05-18T16:04:25.368Z,23.42
2023-05-18T16:06:27.025Z,23.35
2023-05-18T16:08:29.426Z,23.18
2023-05-18T16:10:33.730Z,22.94
2023-05-18T16:12:36.998Z,22.98
2023-05-18T16:14:38.617Z,22.96
2023-05-18T16:16:43.257Z,22.95
2023-05-18T16:18:44.935Z,22.91
2023-05-18T16:20:46.585Z,22.95
2023-05-18T16:22:48.232Z,22.99
2023-05-18T16:24:49.829Z,22.95
2023-05-18T16:26:52.829Z,22.84
2023-05-18T16:28:54.443Z,22.76
2023-05-18T16:30:56.114Z,22.64
2023-05-18T16:32:57.833Z,22.67
2023-05-18T16:34:59.435Z,22.84
2023-05-18T16:37:01.010Z,22.68
2023-05-18T16:39:02.820Z,22.62
2023-05-18T16:41:05.349Z,22.63
2023-05-18T16:43:08.911Z,22.68
2023-05-18T16:45:10.939Z,22.70
2023-05-18T16:47:12.552Z,22.64
2023-05-18T16:49:14.137Z,22.63
2023-05-18T16:51:15.770Z,22.44
2023-05-18T16:53:17.523Z,22.54
2023-05-18T16:55:19.365Z,22.36
2023-05-18T16:57:21.070Z,22.32
2023-05-18T16:59:24.125Z,22.31
2023-05-18T17:01:28.637Z,22.39
2023-05-18T17:03:31.003Z,22.41
2023-05-18T17:05:32.987Z,22.44
2023-05-18T17:07:35.203Z,22.52
2023-05-18T17:09:37.033Z,22.45
2023-05-18T17:11:38.745Z,22.54
2023-05-18T17:13:40.385Z,22.54
2023-05-18T17:15:43.680Z,22.41
2023-05-18T17:17:45.342Z,22.39
2023-05-18T17:19:47.024Z,22.30
2023-05-18T17:21:48.864Z,22.27
2023-05-18T17:23:50.588Z,22.42
2023-05-18T17:25:55.243Z,22.37
2023-05-18T17:28:02.655Z,22.41
2023-05-18T17:30:05.334Z,22.34
2023-05-18T17:32:08.383Z,22.34
2023-05-18T17:34:10.012Z,22.41
2023-05-18T17:36:11.691Z,22.28
2023-05-18T17:38:13.269Z,22.25
2023-05-18T17:40:14.942Z,21.93
2023-05-18T17:42:16.633Z,21.97
2023-05-18T17:44:18.520Z,21.93
2023-05-18T17:46:20.273Z,21.83
2023-05-18T17:48:23.600Z,21.90
2023-05-18T17:50:25.220Z,21.72
2023-05-18T17:52:26.848Z,21.60
2023-05-18T17:54:28.538Z,21.66
2023-05-18T17:56:30.285Z,21.70
2023-05-18T17:58:31.861Z,21.69
2023-05-18T18:00:33.660Z,21.73
2023-05-18T18:02:35.374Z,21.66
2023-05-18T18:04:38.380Z,21.71
2023-05-18T18:06:40.153Z,21.71
2023-05-18T18:08:41.819Z,21.77
2023-05-18T18:10:43.480Z,21.70
2023-05-18T18:12:45.197Z,21.65
2023-05-18T18:14:46.900Z,21.56
2023-05-18T18:16:48.618Z,21.53
2023-05-18T18:18:50.724Z,21.54
2023-05-18T18:20:53.699Z,21.49
2023-05-18T18:22:55.242Z,21.57
2023-05-18T18:24:57.001Z,21.46
2023-05-18T18:27:04.506Z,21.43
2023-05-18T18:29:06.331Z,21.36
2023-05-18T18:31:10.849Z,21.32
2023-05-18T18:33:12.960Z,21.30
2023-05-18T18:35:14.873Z,21.36
2023-05-18T18:37:18.301Z,21.32
2023-05-18T18:39:19.968Z,21.31
2023-05-18T18:41:21.763Z,21.22
2023-05-18T18:43:23.416Z,21.11
2023-05-18T18:45:25.096Z,21.11
2023-05-18T18:47:27.023Z,21.20
2023-05-18T18:49:28.709Z,21.19
2023-05-18T18:51:30.389Z,21.16
2023-05-18T18:53:33.481Z,21.20
2023-05-18T18:55:35.187Z,21.16
2023-05-18T18:57:39.193Z,21.13
2023-05-18T18:59:40.832Z,21.16
2023-05-18T19:01:42.852Z,21.17
2023-05-18T19:03:44.513Z,21.14
2023-05-18T19:05:46.198Z,21.16
2023-05-18T19:07:47.932Z,21.00
2023-05-18T19:09:50.861Z,20.98
2023-05-18T19:11:52.494Z,20.95
2023-05-18T19:13:54.171Z,20.98
2023-05-18T19:15:56.107Z,20.93
2023-05-18T19:17:57.980Z,20.91
2023-05-18T19:19:59.714Z,20.87
2023-05-18T19:22:01.354Z,20.82
2023-05-18T19:24:03.178Z,20.85
2023-05-18T19:26:06.283Z,20.78
2023-05-18T19:28:08.005Z,20.77
2023-05-18T19:30:10.279Z,20.71
2023-05-18T19:32:12.139Z,20.62
2023-05-18T19:34:13.825Z,20.51
2023-05-18T19:36:15.711Z,20.45
2023-05-18T19:38:17.592Z,20.44
2023-05-18T19:40:19.593Z,20.40
2023-05-18T19:42:22.834Z,20.34
2023-05-18T19:44:24.466Z,20.26
2023-05-18T19:46:26.176Z,20.22
2023-05-18T19:48:27.982Z,20.19
2023-05-18T19:50:29.640Z,20.15
2023-05-18T19:52:31.375Z,20.08
2023-05-18T19:54:33.208Z,20.04
2023-05-18T19:56:35.435Z,20.11
2023-05-18T19:58:38.759Z,20.12
2023-05-18T20:00:41.206Z,20.08
2023-05-18T20:02:43.963Z,20.00
2023-05-18T20:04:45.654Z,20.03
2023-05-18T20:06:48.245Z,20.00
2023-05-18T20:08:49.993Z,20.03
2023-05-18T20:10:51.623Z,20.04
2023-05-18T20:12:53.351Z,20.00
2023-05-18T20:14:56.460Z,19.99
2023-05-18T20:16:58.567Z,19.92
2023-05-18T20:19:00.590Z,19.77
2023-05-18T20:21:02.362Z,19.67
2023-05-18T20:23:04.110Z,19.65
2023-05-18T20:25:07.050Z,19.54
2023-05-18T20:27:08.745Z,19.45
2023-05-18T20:29:10.512Z,19.42
2023-05-18T20:31:13.536Z,19.41
2023-05-18T20:33:15.272Z,19.38
2023-05-18T20:35:16.965Z,19.34
2023-05-18T20:37:18.742Z,19.34
2023-05-18T20:39:20.533Z,19.26
2023-05-18T20:41:22.103Z,19.21
2023-05-18T20:43:23.838Z,19.19
2023-05-18T20:45:25.569Z,19.13
2023-05-18T20:47:28.570Z,19.09
2023-05-18T20:49:30.309Z,19.03
2023-05-18T20:51:32.012Z,19.07
2023-05-18T20:53:33.648Z,19.03
2023-05-18T20:55:35.345Z,18.94
2023-05-18T20:57:37.077Z,18.91
2023-05-18T20:59:38.706Z,18.79
2023-05-18T21:01:40.407Z,18.79
2023-05-18T21:03:43.768Z,18.76
2023-05-18T21:05:45.610Z,18.69
2023-05-18T21:07:47.269Z,18.74
2023-05-18T21:09:48.909Z,18.75
2023-05-18T21:11:50.575Z,18.70
2023-05-18T21:13:52.476Z,18.73
2023-05-18T21:15:54.210Z,18.77
2023-05-18T21:17:55.994Z,18.85
2023-05-18T21:19:59.415Z,18.89
2023-05-18T21:22:01.308Z,18.91
2023-05-18T21:24:03.198Z,18.86
2023-05-18T21:26:05.069Z,18.88
2023-05-18T21:28:06.888Z,18.85
2023-05-18T21:30:10.025Z,18.87
2023-05-18T21:32:12.054Z,18.84
2023-05-18T21:34:13.823Z,18.81
2023-05-18T21:36:19.219Z,18.87
2023-05-18T21:38:20.886Z,18.85
2023-05-18T21:40:22.764Z,18.79
2023-05-18T21:42:24.377Z,18.79
2023-05-18T21:44:26.200Z,18.80
2023-05-18T21:46:28.455Z,18.78
2023-05-18T21:48:30.151Z,18.84
2023-05-18T21:50:32.026Z,18.73
2023-05-18T21:52:35.219Z,18.67
2023-05-18T21:54:36.902Z,18.64
2023-05-18T21:56:38.609Z,18.70
2023-05-18T21:58:40.332Z,18.70
2023-05-18T22:00:42.031Z,18.72
2023-05-18T22:02:43.846Z,18.60
2023-05-18T22:04:45.517Z,18.61
2023-05-18T22:06:47.331Z,18.60
2023-05-18T22:08:50.551Z,18.60
2023-05-18T22:10:52.254Z,18.52
2023-05-18T22:12:53.860Z,18.51
2023-05-18T22:14:55.605Z,18.51
2023-05-18T22:16:57.317Z,18.43
2023-05-18T22:18:59.060Z,18.43
2023-05-18T22:21:00.716Z,18.47
2023-05-18T22:23:02.385Z,18.50
2023-05-18T22:25:06.316Z,18.40
2023-05-18T22:27:08.204Z,18.40
2023-05-18T22:29:09.962Z,18.26
2023-05-18T22:31:11.912Z,18.10
2023-05-18T22:33:13.624Z,18.15
2023-05-18T22:35:15.735Z,18.10
2023-05-18T22:37:17.586Z,17.94
2023-05-18T22:39:19.356Z,17.87
2023-05-18T22:41:22.922Z,17.72
2023-05-18T22:43:24.540Z,17.72
2023-05-18T22:45:26.238Z,17.79
2023-05-18T22:47:28.077Z,17.83
2023-05-18T22:49:29.646Z,17.90
2023-05-18T22:51:31.188Z,17.88
2023-05-18T22:53:33.082Z,17.91
2023-05-18T22:55:34.804Z,17.88
2023-05-18T22:57:37.892Z,17.86
2023-05-18T22:59:39.560Z,17.80
2023-05-18T23:01:41.448Z,17.82
2023-05-18T23:03:43.149Z,17.71
2023-05-18T23:05:44.909Z,17.70
2023-05-18T23:07:46.531Z,17.66
2023-05-18T23:09:48.245Z,17.57
2023-05-18T23:11:49.876Z,17.57
2023-05-18T23:13:52.880Z,17.62
2023-05-18T23:15:54.543Z,17.59
2023-05-18T23:17:56.350Z,17.53
2023-05-18T23:19:59.010Z,17.58
2023-05-18T23:22:00.633Z,17.67
2023-05-18T23:24:02.357Z,17.68
2023-05-18T23:26:03.999Z,17.61
2023-05-18T23:28:05.647Z,17.59
2023-05-18T23:30:09.542Z,17.58
2023-05-18T23:32:11.177Z,17.57
2023-05-18T23:34:13.380Z,17.59
2023-05-18T23:36:18.698Z,17.66
2023-05-18T23:38:25.106Z,17.61
2023-05-18T23:40:26.839Z,17.63
2023-05-18T23:42:29.119Z,17.61
2023-05-18T23:44:31.274Z,17.63
2023-05-18T23:46:35.204Z,17.60
2023-05-18T23:48:37.397Z,17.61
2023-05-18T23:50:42.991Z,17.67
2023-05-18T23:52:46.963Z,17.66
2023-05-18T23:54:50.672Z,17.67
2023-05-18T23:56:52.880Z,17.65
2023-05-18T23:58:55.030Z,17.54
